<?xml version="1.0" encoding="UTF-8" standalone="no" ?>
<gpx xmlns="http://www.topografix.com/GPX/1/1" xmlns:xsi="http://www.w3.org/2001/XMLSchema-instance" xsi:schemaLocation="http://www.topografix.com/GPX/1/1 http://www.topografix.com/GPX/1/1/gpx.xsd" version="1.1" creator="VisuGPX - https://www.visugpx.com">
  <metadata>
    <name>VacancesDricouZoe</name>
  </metadata>
  <trk>
    <name><![CDATA[Journal actif: 2021-06-30 15:38]]></name>
    <trkseg>
      <trkpt lat="45.00449" lon="-1.20013">
        <ele>17.92</ele>
        <time>2021-06-30T17:38:16Z</time>
      </trkpt>
      <trkpt lat="45.00446" lon="-1.19996">
        <ele>16.96</ele>
        <time>2021-06-30T17:39:06Z</time>
      </trkpt>
      <trkpt lat="45.00433" lon="-1.19959">
        <ele>15.04</ele>
        <time>2021-06-30T17:39:22Z</time>
      </trkpt>
      <trkpt lat="45.00446" lon="-1.19936">
        <ele>14.56</ele>
        <time>2021-06-30T17:39:31Z</time>
      </trkpt>
      <trkpt lat="45.00471" lon="-1.19906">
        <ele>13.6</ele>
        <time>2021-06-30T17:39:42Z</time>
      </trkpt>
      <trkpt lat="45.00539" lon="-1.198">
        <ele>10.71</ele>
        <time>2021-06-30T17:40:01Z</time>
      </trkpt>
      <trkpt lat="45.00562" lon="-1.19756">
        <ele>9.75</ele>
        <time>2021-06-30T17:40:10Z</time>
      </trkpt>
      <trkpt lat="45.00562" lon="-1.19751">
        <ele>9.75</ele>
        <time>2021-06-30T17:40:11Z</time>
      </trkpt>
      <trkpt lat="45.00562" lon="-1.19745">
        <ele>9.27</ele>
        <time>2021-06-30T17:40:12Z</time>
      </trkpt>
      <trkpt lat="45.00556" lon="-1.19626">
        <ele>9.75</ele>
        <time>2021-06-30T17:40:29Z</time>
      </trkpt>
      <trkpt lat="45.00554" lon="-1.19568">
        <ele>12.15</ele>
        <time>2021-06-30T17:40:40Z</time>
      </trkpt>
      <trkpt lat="45.00554" lon="-1.19568">
        <ele>11.19</ele>
        <time>2021-06-30T17:40:46Z</time>
      </trkpt>
      <trkpt lat="45.00554" lon="-1.19566">
        <ele>11.19</ele>
        <time>2021-06-30T17:40:47Z</time>
      </trkpt>
      <trkpt lat="45.00554" lon="-1.19566">
        <ele>10.71</ele>
        <time>2021-06-30T17:40:48Z</time>
      </trkpt>
      <trkpt lat="45.00556" lon="-1.19565">
        <ele>10.71</ele>
        <time>2021-06-30T17:40:49Z</time>
      </trkpt>
      <trkpt lat="45.00558" lon="-1.19563">
        <ele>10.23</ele>
        <time>2021-06-30T17:40:50Z</time>
      </trkpt>
      <trkpt lat="45.00561" lon="-1.19561">
        <ele>10.23</ele>
        <time>2021-06-30T17:40:51Z</time>
      </trkpt>
      <trkpt lat="45.00562" lon="-1.19547">
        <ele>9.75</ele>
        <time>2021-06-30T17:40:52Z</time>
      </trkpt>
      <trkpt lat="45.00562" lon="-1.19543">
        <ele>9.75</ele>
        <time>2021-06-30T17:40:53Z</time>
      </trkpt>
      <trkpt lat="45.00562" lon="-1.19543">
        <ele>9.75</ele>
        <time>2021-06-30T17:40:54Z</time>
      </trkpt>
      <trkpt lat="45.00563" lon="-1.19534">
        <ele>9.75</ele>
        <time>2021-06-30T17:40:55Z</time>
      </trkpt>
      <trkpt lat="45.00563" lon="-1.19534">
        <ele>10.23</ele>
        <time>2021-06-30T17:40:56Z</time>
      </trkpt>
      <trkpt lat="45.00564" lon="-1.19529">
        <ele>10.23</ele>
        <time>2021-06-30T17:40:57Z</time>
      </trkpt>
      <trkpt lat="45.00576" lon="-1.19476">
        <ele>10.71</ele>
        <time>2021-06-30T17:41:06Z</time>
      </trkpt>
      <trkpt lat="45.00576" lon="-1.19469">
        <ele>10.71</ele>
        <time>2021-06-30T17:41:07Z</time>
      </trkpt>
      <trkpt lat="45.00577" lon="-1.19462">
        <ele>10.23</ele>
        <time>2021-06-30T17:41:08Z</time>
      </trkpt>
      <trkpt lat="45.00576" lon="-1.19448">
        <ele>10.23</ele>
        <time>2021-06-30T17:41:09Z</time>
      </trkpt>
      <trkpt lat="45.00575" lon="-1.19442">
        <ele>9.75</ele>
        <time>2021-06-30T17:41:10Z</time>
      </trkpt>
      <trkpt lat="45.0057" lon="-1.19422">
        <ele>8.79</ele>
        <time>2021-06-30T17:41:14Z</time>
      </trkpt>
      <trkpt lat="45.00563" lon="-1.1939">
        <ele>8.79</ele>
        <time>2021-06-30T17:41:20Z</time>
      </trkpt>
      <trkpt lat="45.00562" lon="-1.19386">
        <ele>8.79</ele>
        <time>2021-06-30T17:41:21Z</time>
      </trkpt>
      <trkpt lat="45.00562" lon="-1.19378">
        <ele>8.79</ele>
        <time>2021-06-30T17:41:22Z</time>
      </trkpt>
      <trkpt lat="45.00565" lon="-1.19376">
        <ele>8.31</ele>
        <time>2021-06-30T17:41:23Z</time>
      </trkpt>
      <trkpt lat="45.00568" lon="-1.19373">
        <ele>8.31</ele>
        <time>2021-06-30T17:41:24Z</time>
      </trkpt>
      <trkpt lat="45.00571" lon="-1.19371">
        <ele>8.31</ele>
        <time>2021-06-30T17:41:25Z</time>
      </trkpt>
      <trkpt lat="45.00586" lon="-1.19359">
        <ele>7.83</ele>
        <time>2021-06-30T17:41:29Z</time>
      </trkpt>
      <trkpt lat="45.00589" lon="-1.19356">
        <ele>7.83</ele>
        <time>2021-06-30T17:41:30Z</time>
      </trkpt>
      <trkpt lat="45.00597" lon="-1.19351">
        <ele>7.35</ele>
        <time>2021-06-30T17:41:31Z</time>
      </trkpt>
      <trkpt lat="45.00597" lon="-1.19351">
        <ele>6.87</ele>
        <time>2021-06-30T17:41:32Z</time>
      </trkpt>
      <trkpt lat="45.00602" lon="-1.1935">
        <ele>6.39</ele>
        <time>2021-06-30T17:41:33Z</time>
      </trkpt>
      <trkpt lat="45.00606" lon="-1.1935">
        <ele>6.87</ele>
        <time>2021-06-30T17:41:34Z</time>
      </trkpt>
      <trkpt lat="45.00636" lon="-1.19344">
        <ele>6.87</ele>
        <time>2021-06-30T17:41:40Z</time>
      </trkpt>
      <trkpt lat="45.00645" lon="-1.19337">
        <ele>6.87</ele>
        <time>2021-06-30T17:41:41Z</time>
      </trkpt>
      <trkpt lat="45.00645" lon="-1.19337">
        <ele>6.87</ele>
        <time>2021-06-30T17:41:42Z</time>
      </trkpt>
      <trkpt lat="45.00664" lon="-1.19324">
        <ele>5.91</ele>
        <time>2021-06-30T17:41:46Z</time>
      </trkpt>
      <trkpt lat="45.00669" lon="-1.1932">
        <ele>5.91</ele>
        <time>2021-06-30T17:41:47Z</time>
      </trkpt>
      <trkpt lat="45.00692" lon="-1.19306">
        <ele>3.98</ele>
        <time>2021-06-30T17:41:55Z</time>
      </trkpt>
      <trkpt lat="45.00694" lon="-1.193">
        <ele>3.5</ele>
        <time>2021-06-30T17:41:56Z</time>
      </trkpt>
      <trkpt lat="45.00694" lon="-1.19296">
        <ele>3.5</ele>
        <time>2021-06-30T17:41:57Z</time>
      </trkpt>
      <trkpt lat="45.00692" lon="-1.19286">
        <ele>3.5</ele>
        <time>2021-06-30T17:41:58Z</time>
      </trkpt>
      <trkpt lat="45.00691" lon="-1.1928">
        <ele>3.98</ele>
        <time>2021-06-30T17:41:59Z</time>
      </trkpt>
      <trkpt lat="45.0069" lon="-1.19273">
        <ele>3.98</ele>
        <time>2021-06-30T17:42:00Z</time>
      </trkpt>
      <trkpt lat="45.00681" lon="-1.1922">
        <ele>4.94</ele>
        <time>2021-06-30T17:42:09Z</time>
      </trkpt>
      <trkpt lat="45.00685" lon="-1.19215">
        <ele>4.94</ele>
        <time>2021-06-30T17:42:10Z</time>
      </trkpt>
      <trkpt lat="45.00685" lon="-1.19215">
        <ele>4.46</ele>
        <time>2021-06-30T17:42:11Z</time>
      </trkpt>
      <trkpt lat="45.00712" lon="-1.19188">
        <ele>4.46</ele>
        <time>2021-06-30T17:42:22Z</time>
      </trkpt>
      <trkpt lat="45.00713" lon="-1.19183">
        <ele>4.46</ele>
        <time>2021-06-30T17:42:23Z</time>
      </trkpt>
      <trkpt lat="45.00714" lon="-1.19178">
        <ele>4.94</ele>
        <time>2021-06-30T17:42:24Z</time>
      </trkpt>
      <trkpt lat="45.00696" lon="-1.19107">
        <ele>9.75</ele>
        <time>2021-06-30T17:42:36Z</time>
      </trkpt>
      <trkpt lat="45.00694" lon="-1.191">
        <ele>10.23</ele>
        <time>2021-06-30T17:42:37Z</time>
      </trkpt>
    </trkseg>
  </trk>
</gpx>